Time;durP1;ratioP1;P1;durP2;ratioP2;P2;SDS_P1;SDS_P2;PMS_P1;PMS_P2;Temp;Humidity;BMP_temperature;BMP_pressure;BME280_temperature;BME280_humidity;BME280_pressure;Samples;Min_cycle;Max_cycle;Signal;HPM_P1;HPM_P2
2023/12/03 00:02:03;;;;;;;12.95;9.63;;;;;;;;;;5589158;31;34387;-71
2023/12/03 00:05:06;;;;;;;13.20;9.27;;;;;;;;;;5588986;31;34355;-72
2023/12/03 00:08:09;;;;;;;14.13;9.55;;;;;;;;;;5588912;31;34473;-72
2023/12/03 00:11:12;;;;;;;12.43;9.35;;;;;;;;;;5589061;31;34312;-72
2023/12/03 00:14:14;;;;;;;13.52;9.63;;;;;;;;;;5588605;31;34411;-70
2023/12/03 00:17:17;;;;;;;13.77;9.85;;;;;;;;;;5588993;31;34574;-72
2023/12/03 00:20:20;;;;;;;13.80;9.68;;;;;;;;;;5588942;31;34513;-73
2023/12/03 00:23:23;;;;;;;11.93;9.10;;;;;;;;;;5589101;31;35063;-73
2023/12/03 00:26:25;;;;;;;13.23;9.70;;;;;;;;;;5588805;31;35069;-71
2023/12/03 00:29:28;;;;;;;12.45;9.73;;;;;;;;;;5588948;31;34325;-73
2023/12/03 00:32:30;;;;;;;12.00;9.25;;;;;;;;;;5589089;31;35008;-74
2023/12/03 00:35:33;;;;;;;12.65;8.57;;;;;;;;;;5588634;31;34537;-73
2023/12/03 00:38:35;;;;;;;11.70;8.85;;;;;;;;;;5587567;31;34644;-74
2023/12/03 00:41:38;;;;;;;13.57;8.90;;;;;;;;;;5588797;31;34303;-72
2023/12/03 00:44:41;;;;;;;11.05;8.68;;;;;;;;;;5588996;31;34327;-73
2023/12/03 00:47:43;;;;;;;13.50;9.07;;;;;;;;;;5588734;31;34494;-74
2023/12/03 00:50:46;;;;;;;11.32;8.40;;;;;;;;;;5588624;31;35071;-74
2023/12/03 00:53:49;;;;;;;11.10;8.32;;;;;;;;;;5588588;31;34550;-70
2023/12/03 00:56:51;;;;;;;11.70;8.40;;;;;;;;;;5588680;31;35008;-73
2023/12/03 00:59:54;;;;;;;10.90;8.00;;;;;;;;;;5588462;31;35115;-73
2023/12/03 01:02:57;;;;;;;11.23;8.10;;;;;;;;;;5588135;31;35025;-72
2023/12/03 01:06:00;;;;;;;10.88;8.10;;;;;;;;;;5588540;31;34563;-72
2023/12/03 01:09:02;;;;;;;11.25;8.10;;;;;;;;;;5588435;31;34523;-71
2023/12/03 01:12:05;;;;;;;10.90;8.00;;;;;;;;;;5588330;31;34996;-73
2023/12/03 01:15:08;;;;;;;10.75;8.10;;;;;;;;;;5588265;31;35042;-71
2023/12/03 01:18:11;;;;;;;11.73;8.90;;;;;;;;;;5588655;31;34537;-72
2023/12/03 01:21:14;;;;;;;12.25;8.93;;;;;;;;;;5588346;31;34271;-70
2023/12/03 01:24:17;;;;;;;13.23;9.50;;;;;;;;;;5588472;31;35211;-71
2023/12/03 01:27:19;;;;;;;11.98;9.38;;;;;;;;;;5588407;31;34266;-73
2023/12/03 01:30:22;;;;;;;12.77;9.90;;;;;;;;;;5588263;31;35076;-72
2023/12/03 01:33:25;;;;;;;12.88;9.10;;;;;;;;;;5588692;31;33314;-72
2023/12/03 01:36:28;;;;;;;13.30;10.32;;;;;;;;;;5588217;31;35133;-71
2023/12/03 01:39:30;;;;;;;12.40;9.25;;;;;;;;;;5588141;31;34036;-70
2023/12/03 01:42:33;;;;;;;12.82;9.55;;;;;;;;;;5588395;31;34996;-73
2023/12/03 01:45:38;;;;;;;14.87;9.98;;;;;;;;;;5587987;31;34273;-74
2023/12/03 01:48:42;;;;;;;11.52;8.98;;;;;;;;;;5587907;31;34301;-71
2023/12/03 01:51:45;;;;;;;13.30;9.77;;;;;;;;;;5587465;31;35120;-72
2023/12/03 01:54:48;;;;;;;14.00;9.80;;;;;;;;;;5587603;31;34671;-71
2023/12/03 01:57:51;;;;;;;12.55;9.38;;;;;;;;;;5588214;31;35055;-73
2023/12/03 02:00:54;;;;;;;15.57;9.55;;;;;;;;;;5588080;31;35017;-72
2023/12/03 02:03:57;;;;;;;13.07;9.25;;;;;;;;;;5588001;31;34171;-72
2023/12/03 02:07:00;;;;;;;12.07;8.65;;;;;;;;;;5587759;31;34308;-73
2023/12/03 02:10:04;;;;;;;11.75;9.20;;;;;;;;;;5587850;31;34297;-70
2023/12/03 02:13:07;;;;;;;15.40;9.43;;;;;;;;;;5587467;31;35136;-72
2023/12/03 02:16:10;;;;;;;13.68;10.25;;;;;;;;;;5587605;31;35031;-74
2023/12/03 02:19:12;;;;;;;12.82;9.90;;;;;;;;;;5588011;31;34551;-72
2023/12/03 02:22:15;;;;;;;12.57;9.77;;;;;;;;;;5587884;31;34316;-72
2023/12/03 02:25:18;;;;;;;13.75;9.80;;;;;;;;;;5587803;31;35272;-71
2023/12/03 02:28:20;;;;;;;11.20;9.25;;;;;;;;;;5587569;31;35058;-72
2023/12/03 02:31:23;;;;;;;12.65;9.95;;;;;;;;;;5587446;31;35014;-73
2023/12/03 02:34:25;;;;;;;12.90;10.23;;;;;;;;;;5587829;31;34427;-74
2023/12/03 02:37:28;;;;;;;12.65;9.45;;;;;;;;;;5587342;31;34699;-74
2023/12/03 02:40:35;;;;;;;12.57;9.45;;;;;;;;;;5587274;31;34964;-72
2023/12/03 02:43:37;;;;;;;12.00;9.65;;;;;;;;;;5587180;31;34581;-74
2023/12/03 02:46:40;;;;;;;11.82;9.15;;;;;;;;;;5587276;31;34503;-74
2023/12/03 02:49:43;;;;;;;11.63;9.25;;;;;;;;;;5587059;31;35143;-74
2023/12/03 02:52:45;;;;;;;11.82;9.27;;;;;;;;;;5587239;31;34235;-74
2023/12/03 02:55:48;;;;;;;11.77;9.75;;;;;;;;;;5586647;31;34548;-71
2023/12/03 02:58:50;;;;;;;12.63;9.13;;;;;;;;;;5586805;31;35100;-72
2023/12/03 03:01:53;;;;;;;12.82;9.18;;;;;;;;;;5587441;31;34463;-73
2023/12/03 03:04:55;;;;;;;11.05;8.85;;;;;;;;;;5589854;31;35053;-73
2023/12/03 03:07:58;;;;;;;10.68;8.82;;;;;;;;;;5588761;31;34357;-74
2023/12/03 03:11:01;;;;;;;12.18;8.50;;;;;;;;;;5589594;31;35121;-72
2023/12/03 03:14:03;;;;;;;11.60;8.90;;;;;;;;;;5588834;31;34319;-73
2023/12/03 03:17:06;;;;;;;10.65;8.57;;;;;;;;;;5589468;31;34492;-72
2023/12/03 03:20:09;;;;;;;11.80;9.00;;;;;;;;;;5588737;31;34395;-71
2023/12/03 03:23:11;;;;;;;9.25;8.20;;;;;;;;;;5588582;31;34393;-71
2023/12/03 03:26:14;;;;;;;11.00;8.52;;;;;;;;;;5588806;31;34683;-71
2023/12/03 03:29:16;;;;;;;11.25;8.80;;;;;;;;;;5589540;31;34149;-71
2023/12/03 03:32:19;;;;;;;11.55;8.95;;;;;;;;;;5589332;31;34539;-72
2023/12/03 03:35:21;;;;;;;10.48;8.32;;;;;;;;;;5589221;31;35198;-72
2023/12/03 03:38:25;;;;;;;11.85;8.45;;;;;;;;;;5589285;31;34289;-71
2023/12/03 03:41:27;;;;;;;11.23;8.25;;;;;;;;;;5589580;31;35116;-73
2023/12/03 03:44:30;;;;;;;10.15;8.00;;;;;;;;;;5589465;31;34303;-71
2023/12/03 03:47:34;;;;;;;10.63;8.10;;;;;;;;;;5588583;31;34401;-71
2023/12/03 03:50:37;;;;;;;10.07;8.18;;;;;;;;;;5589535;31;34417;-73
2023/12/03 03:53:39;;;;;;;10.55;8.50;;;;;;;;;;5589209;31;34417;-74
2023/12/03 03:56:46;;;;;;;9.65;7.95;;;;;;;;;;5589048;31;35204;-74
2023/12/03 03:59:48;;;;;;;11.20;8.07;;;;;;;;;;5589180;31;35122;-72
2023/12/03 04:02:52;;;;;;;4.95;1.98;;;;;;;;;;5588927;31;35004;-72
2023/12/03 04:05:55;;;;;;;9.07;7.65;;;;;;;;;;5589052;31;35168;-73
2023/12/03 04:08:57;;;;;;;10.55;8.40;;;;;;;;;;5589372;31;34973;-74
2023/12/03 04:12:00;;;;;;;9.82;7.70;;;;;;;;;;5588947;31;34762;-73
2023/12/03 04:15:02;;;;;;;9.50;7.97;;;;;;;;;;5588785;31;34207;-71
2023/12/03 04:18:05;;;;;;;8.27;7.07;;;;;;;;;;5588925;31;34321;-70
2023/12/03 04:21:13;;;;;;;10.05;7.82;;;;;;;;;;5588807;31;34478;-73
2023/12/03 04:24:15;;;;;;;8.95;7.10;;;;;;;;;;5589022;31;34309;-70
2023/12/03 04:27:18;;;;;;;9.82;7.47;;;;;;;;;;5588812;31;33237;-69
2023/12/03 04:30:20;;;;;;;9.52;7.25;;;;;;;;;;5588827;31;34352;-72
2023/12/03 04:33:22;;;;;;;8.52;6.87;;;;;;;;;;5588084;31;35215;-71
2023/12/03 04:36:27;;;;;;;2.65;1.75;;;;;;;;;;5588718;31;34969;-73
2023/12/03 04:39:30;;;;;;;10.25;7.60;;;;;;;;;;5588010;31;35032;-73
2023/12/03 04:42:35;;;;;;;9.48;7.57;;;;;;;;;;5588394;31;34339;-72
2023/12/03 04:45:38;;;;;;;9.57;7.40;;;;;;;;;;5587960;31;34334;-73
2023/12/03 04:48:41;;;;;;;11.15;8.10;;;;;;;;;;5588803;31;35049;-75
2023/12/03 04:51:44;;;;;;;3.67;2.47;;;;;;;;;;5588614;31;34505;-71
2023/12/03 04:54:46;;;;;;;10.82;8.00;;;;;;;;;;5588579;31;34407;-73
2023/12/03 04:57:49;;;;;;;9.73;7.90;;;;;;;;;;5588450;31;34756;-70
2023/12/03 05:00:52;;;;;;;3.80;2.08;;;;;;;;;;5588712;31;34375;-72
2023/12/03 05:03:55;;;;;;;10.88;8.43;;;;;;;;;;5588760;31;34370;-73
2023/12/03 05:06:58;;;;;;;11.00;8.80;;;;;;;;;;5588991;31;34342;-73
2023/12/03 05:10:01;;;;;;;11.07;8.80;;;;;;;;;;5588517;31;35047;-71
2023/12/03 05:13:03;;;;;;;10.90;8.95;;;;;;;;;;5588497;31;35058;-73
2023/12/03 05:16:06;;;;;;;10.55;8.93;;;;;;;;;;5588666;31;34418;-73
2023/12/03 05:19:09;;;;;;;12.90;9.10;;;;;;;;;;5588548;31;34570;-73
2023/12/03 05:22:11;;;;;;;11.52;9.32;;;;;;;;;;5588417;31;35045;-73
2023/12/03 05:25:14;;;;;;;3.33;1.92;;;;;;;;;;5587933;31;35200;-72
2023/12/03 05:28:17;;;;;;;12.45;9.38;;;;;;;;;;5588434;31;34512;-73
2023/12/03 05:31:20;;;;;;;11.12;9.07;;;;;;;;;;5588401;31;34518;-73
2023/12/03 05:34:22;;;;;;;12.32;8.82;;;;;;;;;;5588202;31;35096;-71
2023/12/03 05:37:28;;;;;;;11.98;9.52;;;;;;;;;;5588212;31;34344;-72
2023/12/03 05:40:31;;;;;;;13.55;10.10;;;;;;;;;;5588217;31;35112;-73
2023/12/03 05:43:34;;;;;;;11.88;9.10;;;;;;;;;;5588197;31;34097;-72
2023/12/03 05:46:40;;;;;;;5.30;2.83;;;;;;;;;;5587902;31;34623;-71
2023/12/03 05:49:43;;;;;;;11.88;9.40;;;;;;;;;;5587921;31;34982;-71
2023/12/03 05:52:46;;;;;;;12.45;9.40;;;;;;;;;;5588060;31;34354;-70
2023/12/03 05:55:48;;;;;;;11.15;9.05;;;;;;;;;;5587974;31;34407;-71
2023/12/03 05:58:51;;;;;;;11.73;9.52;;;;;;;;;;5588169;31;35223;-71
2023/12/03 06:01:56;;;;;;;2.92;1.95;;;;;;;;;;5587880;31;34502;-75
2023/12/03 06:04:59;;;;;;;11.20;8.98;;;;;;;;;;5588096;31;35094;-72
2023/12/03 06:08:02;;;;;;;6.32;3.53;;;;;;;;;;5587174;31;34386;-72
2023/12/03 06:11:05;;;;;;;11.35;9.60;;;;;;;;;;5587710;31;34455;-72
2023/12/03 06:14:07;;;;;;;10.82;8.73;;;;;;;;;;5587414;31;35129;-71
2023/12/03 06:17:10;;;;;;;11.23;8.88;;;;;;;;;;5587181;31;35259;-71
2023/12/03 06:20:13;;;;;;;12.75;9.32;;;;;;;;;;5587962;31;34396;-73
2023/12/03 06:23:15;;;;;;;10.95;8.93;;;;;;;;;;5587775;31;34376;-73
2023/12/03 06:26:20;;;;;;;5.03;2.33;;;;;;;;;;5587739;31;34355;-73
2023/12/03 06:29:23;;;;;;;11.65;9.20;;;;;;;;;;5586572;31;34539;-73
2023/12/03 06:32:25;;;;;;;11.20;9.15;;;;;;;;;;5587505;31;35027;-72
2023/12/03 06:35:28;;;;;;;10.93;8.23;;;;;;;;;;5587362;31;34284;-73
2023/12/03 06:38:30;;;;;;;11.52;9.48;;;;;;;;;;5589503;31;34232;-73
2023/12/03 06:41:33;;;;;;;10.90;8.30;;;;;;;;;;5589976;31;35100;-72
2023/12/03 06:44:36;;;;;;;5.70;2.47;;;;;;;;;;5589958;31;35210;-72
2023/12/03 06:47:46;;;;;;;;;;;;;;;;;;5590198;31;34415;-73
2023/12/03 06:50:48;;;;;;;10.48;8.25;;;;;;;;;;5590292;31;35458;-72
2023/12/03 06:53:51;;;;;;;10.82;8.63;;;;;;;;;;5589833;31;35061;-72
2023/12/03 06:56:54;;;;;;;11.27;8.88;;;;;;;;;;5589875;31;34389;-73
2023/12/03 06:59:56;;;;;;;12.50;8.40;;;;;;;;;;5588939;31;34573;-72
2023/12/03 07:03:00;;;;;;;12.37;9.38;;;;;;;;;;5589745;31;34369;-72
2023/12/03 07:06:03;;;;;;;4.62;2.60;;;;;;;;;;5589862;31;34333;-73
2023/12/03 07:09:05;;;;;;;10.02;8.60;;;;;;;;;;5589656;31;34245;-72
2023/12/03 07:12:29;;;;;;;7.72;2.50;;;;;;;;;;5589116;31;35032;-71
2023/12/03 07:15:31;;;;;;;11.02;8.52;;;;;;;;;;5589418;31;35089;-73
2023/12/03 07:18:34;;;;;;;11.77;9.45;;;;;;;;;;5589503;31;35008;-71
2023/12/03 07:21:36;;;;;;;12.57;8.80;;;;;;;;;;5589488;31;35137;-71
2023/12/03 07:24:39;;;;;;;11.98;9.07;;;;;;;;;;5589547;31;33616;-71
2023/12/03 07:27:42;;;;;;;5.53;3.37;;;;;;;;;;5589523;31;34605;-73
2023/12/03 07:30:45;;;;;;;11.30;8.48;;;;;;;;;;5589461;31;34671;-71
2023/12/03 07:33:47;;;;;;;10.85;8.75;;;;;;;;;;5589403;31;34509;-72
2023/12/03 07:36:50;;;;;;;11.50;8.65;;;;;;;;;;5589389;31;34579;-71
2023/12/03 07:39:53;;;;;;;15.25;8.77;;;;;;;;;;5589157;31;34347;-73
2023/12/03 07:42:56;;;;;;;9.43;8.02;;;;;;;;;;5589302;31;33757;-72
2023/12/03 07:45:58;;;;;;;10.98;8.93;;;;;;;;;;5588683;31;34384;-73
2023/12/03 07:49:01;;;;;;;12.55;8.75;;;;;;;;;;5589044;31;35136;-71
2023/12/03 07:52:06;;;;;;;11.10;8.40;;;;;;;;;;5589340;31;34372;-71
2023/12/03 07:55:09;;;;;;;10.68;8.27;;;;;;;;;;5589239;31;35157;-71
2023/12/03 07:58:12;;;;;;;11.68;8.90;;;;;;;;;;5589192;31;34326;-72
2023/12/03 08:01:15;;;;;;;10.98;8.02;;;;;;;;;;5589054;31;34135;-73
2023/12/03 08:04:17;;;;;;;11.80;8.85;;;;;;;;;;5589264;31;35022;-73
2023/12/03 08:07:20;;;;;;;2.28;1.25;;;;;;;;;;5589166;31;34417;-71
2023/12/03 08:10:23;;;;;;;12.00;8.55;;;;;;;;;;5589531;31;34357;-73
2023/12/03 08:13:26;;;;;;;12.40;9.05;;;;;;;;;;5589337;31;34260;-71
2023/12/03 08:16:29;;;;;;;12.77;9.20;;;;;;;;;;5588920;31;35116;-71
2023/12/03 08:19:32;;;;;;;11.07;8.43;;;;;;;;;;5589129;31;35046;-73
2023/12/03 08:22:35;;;;;;;11.02;8.55;;;;;;;;;;5588317;31;34446;-72
2023/12/03 08:25:37;;;;;;;11.18;8.43;;;;;;;;;;5589046;31;34388;-73
2023/12/03 08:28:40;;;;;;;10.73;7.78;;;;;;;;;;5589047;31;34759;-72
2023/12/03 08:31:42;;;;;;;11.15;9.02;;;;;;;;;;5588814;31;34599;-74
2023/12/03 08:34:45;;;;;;;12.65;8.40;;;;;;;;;;5589028;31;35026;-74
2023/12/03 08:37:48;;;;;;;11.52;9.02;;;;;;;;;;5588488;31;34555;-72
2023/12/03 08:40:52;;;;;;;11.25;8.63;;;;;;;;;;5588661;31;35026;-72
2023/12/03 08:43:55;;;;;;;11.65;8.85;;;;;;;;;;5588767;31;34907;-73
2023/12/03 08:46:59;;;;;;;9.60;7.32;;;;;;;;;;5588674;31;34235;-72
2023/12/03 08:50:01;;;;;;;12.37;8.30;;;;;;;;;;5588957;31;35086;-73
2023/12/03 08:53:04;;;;;;;10.90;8.45;;;;;;;;;;5588681;31;34445;-74
2023/12/03 08:56:10;;;;;;;10.70;8.32;;;;;;;;;;5588587;31;34719;-74
2023/12/03 08:59:12;;;;;;;11.70;8.95;;;;;;;;;;5587646;31;34534;-74
2023/12/03 09:02:15;;;;;;;10.75;8.20;;;;;;;;;;5588516;31;35261;-74
2023/12/03 09:05:18;;;;;;;10.13;7.93;;;;;;;;;;5588723;31;34258;-73
2023/12/03 09:08:21;;;;;;;10.88;8.60;;;;;;;;;;5588365;31;34504;-73
2023/12/03 09:11:23;;;;;;;11.25;8.15;;;;;;;;;;5588454;31;35034;-73
2023/12/03 09:14:27;;;;;;;10.65;8.23;;;;;;;;;;5588309;31;35007;-74
2023/12/03 09:17:32;;;;;;;10.48;8.50;;;;;;;;;;5588416;31;34360;-74
2023/12/03 09:20:34;;;;;;;9.95;7.80;;;;;;;;;;5588455;31;34528;-74
2023/12/03 09:23:37;;;;;;;11.18;8.35;;;;;;;;;;5588374;31;34123;-74
2023/12/03 09:26:43;;;;;;;10.00;7.85;;;;;;;;;;5587444;31;34565;-74
2023/12/03 09:29:46;;;;;;;10.43;8.23;;;;;;;;;;5588232;31;35085;-73
2023/12/03 09:32:49;;;;;;;10.68;8.30;;;;;;;;;;5588264;31;34702;-73
2023/12/03 09:35:53;;;;;;;10.32;7.65;;;;;;;;;;5588310;31;35054;-73
2023/12/03 09:38:55;;;;;;;10.18;7.68;;;;;;;;;;5587862;31;34334;-73
2023/12/03 09:42:00;;;;;;;9.23;7.55;;;;;;;;;;5587816;31;34309;-72
2023/12/03 09:45:09;;;;;;;8.43;7.05;;;;;;;;;;5587725;31;34408;-73
2023/12/03 09:48:12;;;;;;;8.87;7.13;;;;;;;;;;5587809;31;34365;-71
2023/12/03 09:51:16;;;;;;;8.30;6.90;;;;;;;;;;5587789;31;35051;-73
2023/12/03 09:54:21;;;;;;;10.10;6.82;;;;;;;;;;5588178;31;34326;-73
2023/12/03 09:57:30;;;;;;;9.60;7.50;;;;;;;;;;5587895;31;34286;-73
2023/12/03 10:00:33;;;;;;;10.63;6.85;;;;;;;;;;5587567;31;34353;-72
2023/12/03 10:03:35;;;;;;;7.65;6.43;;;;;;;;;;5587441;31;34625;-71
2023/12/03 10:06:41;;;;;;;9.05;6.80;;;;;;;;;;5587474;31;34962;-72
2023/12/03 10:09:44;;;;;;;9.32;6.93;;;;;;;;;;5587269;31;35137;-73
2023/12/03 10:12:48;;;;;;;8.75;6.93;;;;;;;;;;5587161;31;34484;-73
2023/12/03 10:15:52;;;;;;;10.00;7.15;;;;;;;;;;5587406;31;34687;-69
2023/12/03 10:18:54;;;;;;;8.77;7.18;;;;;;;;;;5587308;31;34396;-72
2023/12/03 10:21:58;;;;;;;10.20;7.30;;;;;;;;;;5587523;31;34984;-72
2023/12/03 10:25:00;;;;;;;9.10;7.35;;;;;;;;;;5587380;31;35117;-74
2023/12/03 10:28:04;;;;;;;9.30;7.75;;;;;;;;;;5587270;31;35100;-70
2023/12/03 10:31:13;;;;;;;11.77;7.53;;;;;;;;;;5587175;31;34258;-71
2023/12/03 10:34:16;;;;;;;10.60;7.47;;;;;;;;;;5586722;31;34763;-72
2023/12/03 10:37:18;;;;;;;11.20;7.25;;;;;;;;;;5587409;31;34314;-71
2023/12/03 10:40:21;;;;;;;10.52;7.90;;;;;;;;;;5587009;31;35173;-72
2023/12/03 10:43:24;;;;;;;8.63;7.35;;;;;;;;;;5586776;31;35122;-72
2023/12/03 10:46:26;;;;;;;9.82;7.35;;;;;;;;;;5586903;31;34456;-71
2023/12/03 10:49:31;;;;;;;10.80;7.72;;;;;;;;;;5587263;31;34591;-70
2023/12/03 10:52:37;;;;;;;10.70;7.78;;;;;;;;;;5586226;31;34921;-73
2023/12/03 10:55:40;;;;;;;8.68;7.37;;;;;;;;;;5586939;31;34449;-74
2023/12/03 10:58:43;;;;;;;9.27;7.25;;;;;;;;;;5586998;31;34282;-72
2023/12/03 11:01:48;;;;;;;10.15;7.62;;;;;;;;;;5586395;31;35013;-71
2023/12/03 11:05:03;;;;;;;8.52;6.97;;;;;;;;;;5586845;31;35292;-73
2023/12/03 11:08:08;;;;;;;9.10;7.57;;;;;;;;;;5587101;31;34005;-73
2023/12/03 11:11:12;;;;;;;9.73;7.35;;;;;;;;;;5586690;31;34468;-72
2023/12/03 11:14:15;;;;;;;8.38;7.25;;;;;;;;;;5586631;31;34590;-71
2023/12/03 11:17:23;;;;;;;9.48;6.85;;;;;;;;;;5586815;31;34395;-74
2023/12/03 11:20:27;;;;;;;10.18;8.10;;;;;;;;;;5586642;31;34573;-74
2023/12/03 11:23:30;;;;;;;9.32;7.43;;;;;;;;;;5588002;31;35069;-74
2023/12/03 11:26:33;;;;;;;8.80;7.40;;;;;;;;;;5589605;31;34304;-72
2023/12/03 11:29:48;;;;;;;9.88;8.30;;;;;;;;;;5589856;31;34469;-73
2023/12/03 11:32:52;;;;;;;8.82;7.40;;;;;;;;;;5589341;31;34526;-76
2023/12/03 11:35:58;;;;;;;9.02;7.70;;;;;;;;;;5589344;31;33082;-73
2023/12/03 11:39:01;;;;;;;9.02;7.50;;;;;;;;;;5589453;31;34450;-73
2023/12/03 11:42:06;;;;;;;9.55;7.10;;;;;;;;;;5588637;31;34329;-75
2023/12/03 11:45:15;;;;;;;8.93;7.80;;;;;;;;;;5589723;31;35066;-75
2023/12/03 11:48:18;;;;;;;9.13;7.10;;;;;;;;;;5589280;31;34423;-74
2023/12/03 11:51:21;;;;;;;8.75;7.30;;;;;;;;;;5589136;31;34840;-75
2023/12/03 11:54:25;;;;;;;9.88;6.40;;;;;;;;;;5589113;31;34280;-74
2023/12/03 11:57:31;;;;;;;9.82;6.60;;;;;;;;;;5588500;31;34956;-74
2023/12/03 12:00:35;;;;;;;9.15;6.30;;;;;;;;;;5588610;31;35098;-73
2023/12/03 12:03:38;;;;;;;7.25;6.32;;;;;;;;;;5588132;31;34391;-75
2023/12/03 12:06:40;;;;;;;8.60;6.25;;;;;;;;;;5587977;31;34577;-75
2023/12/03 12:09:45;;;;;;;8.93;6.07;;;;;;;;;;5588819;31;35083;-75
2023/12/03 12:12:48;;;;;;;8.07;6.25;;;;;;;;;;5588912;31;34628;-78
2023/12/03 12:15:50;;;;;;;7.80;6.22;;;;;;;;;;5584098;31;127490;-71
2023/12/03 12:18:53;;;;;;;7.12;5.80;;;;;;;;;;5588575;31;34357;-76
2023/12/03 12:21:56;;;;;;;9.50;6.03;;;;;;;;;;5587914;31;34222;-75
2023/12/03 12:24:59;;;;;;;7.62;6.00;;;;;;;;;;5588663;31;34005;-75
2023/12/03 12:28:02;;;;;;;7.55;5.75;;;;;;;;;;5588865;31;34606;-76
2023/12/03 12:31:05;;;;;;;6.75;5.30;;;;;;;;;;5588787;31;34411;-74
2023/12/03 12:34:09;;;;;;;6.93;5.80;;;;;;;;;;5588979;31;35074;-76
2023/12/03 12:37:12;;;;;;;7.57;6.00;;;;;;;;;;5588493;31;35216;-77
2023/12/03 12:40:16;;;;;;;8.27;6.00;;;;;;;;;;5588535;31;34588;-75
2023/12/03 12:43:21;;;;;;;8.05;6.47;;;;;;;;;;5587790;31;34564;-77
2023/12/03 12:46:24;;;;;;;8.50;6.45;;;;;;;;;;5588596;31;34423;-74
2023/12/03 12:49:27;;;;;;;8.38;6.07;;;;;;;;;;5588380;31;35134;-75
2023/12/03 12:52:34;;;;;;;7.72;6.28;;;;;;;;;;5588422;31;35143;-74
2023/12/03 12:55:37;;;;;;;8.55;6.40;;;;;;;;;;5588320;31;34302;-74
2023/12/03 12:58:40;;;;;;;8.40;6.65;;;;;;;;;;5587397;31;35067;-74
2023/12/03 13:01:42;;;;;;;8.63;6.25;;;;;;;;;;5588065;31;34587;-74
2023/12/03 13:04:45;;;;;;;9.02;6.90;;;;;;;;;;5588764;31;35091;-75
2023/12/03 13:07:48;;;;;;;8.10;6.37;;;;;;;;;;5588486;31;34753;-75
2023/12/03 13:10:51;;;;;;;7.93;6.30;;;;;;;;;;5588395;31;34402;-73
2023/12/03 13:13:53;;;;;;;7.32;6.05;;;;;;;;;;5588207;31;35184;-75
2023/12/03 13:16:56;;;;;;;8.48;6.30;;;;;;;;;;5588134;31;34244;-74
2023/12/03 13:20:00;;;;;;;8.20;6.60;;;;;;;;;;5588419;31;34626;-73
2023/12/03 13:23:03;;;;;;;7.05;5.97;;;;;;;;;;5588309;31;35147;-73
2023/12/03 13:26:07;;;;;;;8.05;6.53;;;;;;;;;;5587434;31;35081;-72
2023/12/03 13:29:10;;;;;;;8.50;6.62;;;;;;;;;;5588277;31;35105;-72
2023/12/03 13:32:13;;;;;;;8.68;6.22;;;;;;;;;;5588133;31;35015;-73
2023/12/03 13:35:15;;;;;;;8.13;5.90;;;;;;;;;;5588111;31;34560;-71
2023/12/03 13:38:17;;;;;;;8.52;6.28;;;;;;;;;;5587229;31;34489;-76
2023/12/03 13:41:20;;;;;;;7.82;6.10;;;;;;;;;;5588131;31;35100;-74
2023/12/03 13:44:23;;;;;;;8.43;6.35;;;;;;;;;;5588147;31;34363;-71
2023/12/03 13:47:26;;;;;;;7.87;6.57;;;;;;;;;;5586718;31;34135;-73
2023/12/03 13:50:28;;;;;;;8.35;6.60;;;;;;;;;;5587550;31;34393;-73
2023/12/03 13:53:31;;;;;;;10.48;6.70;;;;;;;;;;5588344;31;34292;-72
2023/12/03 13:56:34;;;;;;;8.88;6.60;;;;;;;;;;5587859;31;34363;-73
2023/12/03 13:59:36;;;;;;;8.70;6.78;;;;;;;;;;5587792;31;34585;-73
2023/12/03 14:02:39;;;;;;;8.13;6.80;;;;;;;;;;5587890;31;34266;-72
2023/12/03 14:05:44;;;;;;;8.70;6.87;;;;;;;;;;5587850;31;34933;-71
2023/12/03 14:08:46;;;;;;;9.07;6.72;;;;;;;;;;5587933;31;34495;-74
2023/12/03 14:11:49;;;;;;;8.52;6.75;;;;;;;;;;5587696;31;34432;-72
2023/12/03 14:14:51;;;;;;;8.02;6.45;;;;;;;;;;5587476;31;34718;-73
2023/12/03 14:17:54;;;;;;;8.52;6.78;;;;;;;;;;5586920;31;34314;-73
2023/12/03 14:20:57;;;;;;;8.68;7.37;;;;;;;;;;5587618;31;34506;-73
2023/12/03 14:24:00;;;;;;;9.52;7.35;;;;;;;;;;5587904;31;34363;-74
2023/12/03 14:27:02;;;;;;;9.30;7.32;;;;;;;;;;5587125;31;34170;-74
2023/12/03 14:30:05;;;;;;;8.80;7.20;;;;;;;;;;5586476;31;34369;-74
2023/12/03 14:33:10;;;;;;;8.27;7.05;;;;;;;;;;5587447;31;34642;-76
2023/12/03 14:36:13;;;;;;;8.35;6.82;;;;;;;;;;5587107;31;34991;-73
2023/12/03 14:39:16;;;;;;;8.32;6.85;;;;;;;;;;5586790;31;34710;-73
2023/12/03 14:42:19;;;;;;;8.45;6.80;;;;;;;;;;5587076;31;34290;-73
2023/12/03 14:45:21;;;;;;;8.65;6.80;;;;;;;;;;5587269;31;34363;-73
2023/12/03 14:48:24;;;;;;;8.48;7.35;;;;;;;;;;5587287;31;34429;-72
2023/12/03 14:51:27;;;;;;;8.40;7.10;;;;;;;;;;5586092;31;34307;-73
2023/12/03 14:54:29;;;;;;;10.10;6.45;;;;;;;;;;5586707;31;34624;-72
2023/12/03 14:57:32;;;;;;;7.60;6.50;;;;;;;;;;5586946;31;34391;-73
2023/12/03 15:00:35;;;;;;;9.38;7.47;;;;;;;;;;5589132;31;34411;-73
2023/12/03 15:03:38;;;;;;;9.63;6.95;;;;;;;;;;5589431;31;35094;-72
2023/12/03 15:06:41;;;;;;;7.97;6.60;;;;;;;;;;5589223;31;34432;-73
2023/12/03 15:09:44;;;;;;;9.13;6.95;;;;;;;;;;5589088;31;34623;-72
2023/12/03 15:12:47;;;;;;;7.70;6.60;;;;;;;;;;5589002;31;34388;-73
2023/12/03 15:15:49;;;;;;;7.57;6.35;;;;;;;;;;5588957;31;34494;-73
2023/12/03 15:18:52;;;;;;;8.65;6.50;;;;;;;;;;5589148;31;35101;-73
2023/12/03 15:21:54;;;;;;;8.68;5.87;;;;;;;;;;5589120;31;34502;-72
2023/12/03 15:24:57;;;;;;;7.12;5.78;;;;;;;;;;5589026;31;34267;-73
2023/12/03 15:27:59;;;;;;;7.03;5.80;;;;;;;;;;5589173;31;35141;-72
2023/12/03 15:31:02;;;;;;;8.02;6.28;;;;;;;;;;5589015;31;34917;-71
2023/12/03 15:34:04;;;;;;;8.07;6.32;;;;;;;;;;5588784;31;34825;-71
2023/12/03 15:37:07;;;;;;;7.80;6.37;;;;;;;;;;5589127;31;34368;-73
2023/12/03 15:40:10;;;;;;;8.77;7.40;;;;;;;;;;5588693;31;35293;-72
2023/12/03 15:43:13;;;;;;;8.27;6.32;;;;;;;;;;5589418;31;34595;-73
2023/12/03 15:46:17;;;;;;;8.82;7.03;;;;;;;;;;5588951;31;34964;-73
2023/12/03 15:49:20;;;;;;;7.10;6.40;;;;;;;;;;5588811;31;34392;-72
2023/12/03 15:52:22;;;;;;;7.28;6.28;;;;;;;;;;5589071;31;34318;-72
2023/12/03 15:55:26;;;;;;;9.20;6.10;;;;;;;;;;5588842;31;34949;-72
2023/12/03 15:58:28;;;;;;;8.90;6.07;;;;;;;;;;5588887;31;35086;-72
2023/12/03 16:01:31;;;;;;;7.32;5.87;;;;;;;;;;5589153;31;34428;-74
2023/12/03 16:04:34;;;;;;;7.50;6.32;;;;;;;;;;5588752;31;34467;-71
2023/12/03 16:07:37;;;;;;;6.75;5.75;;;;;;;;;;5588861;31;35105;-71
2023/12/03 16:10:40;;;;;;;6.62;5.60;;;;;;;;;;5588410;31;35350;-70
2023/12/03 16:13:43;;;;;;;8.13;6.00;;;;;;;;;;5588698;31;34361;-70
2023/12/03 16:16:46;;;;;;;7.28;6.45;;;;;;;;;;5588822;31;34453;-70
2023/12/03 16:19:48;;;;;;;7.00;6.05;;;;;;;;;;5588765;31;35056;-70
2023/12/03 16:22:52;;;;;;;6.53;5.78;;;;;;;;;;5588729;31;34400;-71
2023/12/03 16:25:54;;;;;;;7.60;6.25;;;;;;;;;;5588454;31;34408;-72
2023/12/03 16:28:57;;;;;;;7.55;6.20;;;;;;;;;;5588787;31;35072;-70
2023/12/03 16:32:01;;;;;;;7.93;5.87;;;;;;;;;;5588621;31;34329;-69
2023/12/03 16:35:04;;;;;;;7.32;5.68;;;;;;;;;;5588820;31;35083;-71
2023/12/03 16:38:07;;;;;;;6.97;5.70;;;;;;;;;;5588571;31;34963;-70
2023/12/03 16:41:13;;;;;;;6.55;5.12;;;;;;;;;;5587797;31;34470;-71
2023/12/03 16:44:15;;;;;;;7.25;5.62;;;;;;;;;;5588473;31;34232;-70
2023/12/03 16:47:18;;;;;;;6.22;5.37;;;;;;;;;;5588692;31;35027;-72
2023/12/03 16:50:20;;;;;;;7.30;5.85;;;;;;;;;;5588588;31;34576;-71
2023/12/03 16:53:22;;;;;;;6.82;5.68;;;;;;;;;;5588760;31;34637;-73
2023/12/03 16:56:26;;;;;;;8.18;5.82;;;;;;;;;;5588522;31;34557;-71
2023/12/03 16:59:29;;;;;;;9.07;6.65;;;;;;;;;;5588328;31;34898;-71
2023/12/03 17:02:31;;;;;;;7.75;6.10;;;;;;;;;;5588348;31;34505;-71
2023/12/03 17:05:35;;;;;;;7.50;5.93;;;;;;;;;;5588429;31;34493;-71
2023/12/03 17:08:40;;;;;;;6.37;5.53;;;;;;;;;;5588440;31;34440;-71
2023/12/03 17:11:43;;;;;;;6.97;5.70;;;;;;;;;;5588227;31;35319;-71
2023/12/03 17:14:46;;;;;;;6.65;5.50;;;;;;;;;;5588305;31;35099;-69
2023/12/03 17:17:48;;;;;;;7.75;6.05;;;;;;;;;;5587852;31;35302;-71
2023/12/03 17:20:51;;;;;;;7.60;6.30;;;;;;;;;;5587369;31;34471;-72
2023/12/03 17:23:55;;;;;;;8.57;6.40;;;;;;;;;;5588270;31;34464;-71
2023/12/03 17:26:58;;;;;;;9.05;6.75;;;;;;;;;;5588232;31;34378;-71
2023/12/03 17:30:01;;;;;;;7.32;6.30;;;;;;;;;;5588193;31;34262;-69
2023/12/03 17:33:03;;;;;;;8.23;6.10;;;;;;;;;;5588339;31;35006;-71
2023/12/03 17:36:06;;;;;;;7.18;6.00;;;;;;;;;;5588264;31;34426;-70
2023/12/03 17:39:09;;;;;;;8.00;6.72;;;;;;;;;;5587975;31;34572;-70
2023/12/03 17:42:12;;;;;;;7.55;6.00;;;;;;;;;;5587831;31;34513;-70
2023/12/03 17:45:15;;;;;;;7.32;6.20;;;;;;;;;;5587992;31;34411;-70
2023/12/03 17:48:18;;;;;;;8.40;7.07;;;;;;;;;;5588347;31;34374;-70
2023/12/03 17:51:20;;;;;;;9.02;6.78;;;;;;;;;;5587980;31;33918;-71
2023/12/03 17:54:23;;;;;;;8.18;6.85;;;;;;;;;;5587767;31;34279;-71
2023/12/03 17:57:25;;;;;;;9.75;7.70;;;;;;;;;;5587895;31;34546;-70
2023/12/03 18:00:28;;;;;;;10.05;7.90;;;;;;;;;;5587575;31;34104;-69
2023/12/03 18:03:33;;;;;;;10.07;7.28;;;;;;;;;;5587691;31;34386;-70
2023/12/03 18:06:35;;;;;;;10.15;7.50;;;;;;;;;;5587850;31;34571;-70
2023/12/03 18:09:39;;;;;;;8.80;7.28;;;;;;;;;;5587575;31;34333;-71